sensor_id;sensor_type;location;lat;lon;timestamp;pressure;altitude;pressure_sealevel;temperature;humidity
58967;BME280;44744;51.894;5.080;2024-02-23T00:01:12;98831.21;;;5.01;100.00
58967;BME280;44744;51.894;5.080;2024-02-23T00:06:12;98836.04;;;5.08;100.00
58967;BME280;44744;51.894;5.080;2024-02-23T00:11:14;98838.75;;;5.09;100.00
58967;BME280;44744;51.894;5.080;2024-02-23T00:16:18;98857.21;;;5.06;99.95
58967;BME280;44744;51.894;5.080;2024-02-23T00:21:19;98866.57;;;4.90;99.60
58967;BME280;44744;51.894;5.080;2024-02-23T00:26:20;98866.15;;;4.67;98.85
58967;BME280;44744;51.894;5.080;2024-02-23T00:31:20;98865.27;;;4.55;99.74
58967;BME280;44744;51.894;5.080;2024-02-23T00:36:20;98876.30;;;4.58;99.97
58967;BME280;44744;51.894;5.080;2024-02-23T00:41:21;98881.43;;;4.63;100.00
58967;BME280;44744;51.894;5.080;2024-02-23T00:46:21;98889.23;;;4.67;100.00
58967;BME280;44744;51.894;5.080;2024-02-23T00:51:22;98905.77;;;4.71;100.00
58967;BME280;44744;51.894;5.080;2024-02-23T00:56:22;98908.11;;;4.73;100.00
58967;BME280;44744;51.894;5.080;2024-02-23T01:01:23;98914.59;;;4.73;100.00
58967;BME280;44744;51.894;5.080;2024-02-23T01:06:23;98920.54;;;4.70;100.00
58967;BME280;44744;51.894;5.080;2024-02-23T01:11:25;98919.45;;;4.68;100.00
58967;BME280;44744;51.894;5.080;2024-02-23T01:16:25;98927.86;;;4.68;100.00
58967;BME280;44744;51.894;5.080;2024-02-23T01:21:26;98934.39;;;4.65;100.00
58967;BME280;44744;51.894;5.080;2024-02-23T01:26:26;98947.55;;;4.61;100.00
58967;BME280;44744;51.894;5.080;2024-02-23T01:31:27;98957.75;;;4.57;100.00
58967;BME280;44744;51.894;5.080;2024-02-23T01:36:28;98959.90;;;4.53;100.00
58967;BME280;44744;51.894;5.080;2024-02-23T01:41:28;98966.89;;;4.51;100.00
58967;BME280;44744;51.894;5.080;2024-02-23T01:46:29;98961.50;;;4.51;100.00
58967;BME280;44744;51.894;5.080;2024-02-23T01:51:29;98964.08;;;4.48;100.00
58967;BME280;44744;51.894;5.080;2024-02-23T01:56:32;98963.36;;;4.45;100.00
58967;BME280;44744;51.894;5.080;2024-02-23T02:01:34;98973.67;;;4.43;99.94
58967;BME280;44744;51.894;5.080;2024-02-23T02:06:34;98971.91;;;4.40;99.51
58967;BME280;44744;51.894;5.080;2024-02-23T02:11:45;98978.84;;;4.38;99.07
58967;BME280;44744;51.894;5.080;2024-02-23T02:16:45;98980.83;;;4.37;98.30
58967;BME280;44744;51.894;5.080;2024-02-23T02:21:46;98983.91;;;4.38;98.67
58967;BME280;44744;51.894;5.080;2024-02-23T02:26:46;98980.59;;;4.38;98.49
58967;BME280;44744;51.894;5.080;2024-02-23T02:31:50;98982.62;;;4.36;98.32
58967;BME280;44744;51.894;5.080;2024-02-23T02:36:50;98989.36;;;4.35;97.93
58967;BME280;44744;51.894;5.080;2024-02-23T02:41:51;98991.27;;;4.32;97.84
58967;BME280;44744;51.894;5.080;2024-02-23T02:46:52;98989.08;;;4.31;97.77
58967;BME280;44744;51.894;5.080;2024-02-23T02:51:52;98995.38;;;4.27;97.59
58967;BME280;44744;51.894;5.080;2024-02-23T02:56:52;98999.86;;;4.26;97.73
58967;BME280;44744;51.894;5.080;2024-02-23T03:01:54;99006.74;;;4.22;97.45
58967;BME280;44744;51.894;5.080;2024-02-23T03:06:55;99009.54;;;4.19;97.40
58967;BME280;44744;51.894;5.080;2024-02-23T03:11:55;99016.94;;;4.15;97.31
58967;BME280;44744;51.894;5.080;2024-02-23T03:16:56;99014.47;;;4.12;97.27
58967;BME280;44744;51.894;5.080;2024-02-23T03:21:56;99017.08;;;4.09;97.33
58967;BME280;44744;51.894;5.080;2024-02-23T03:26:57;99019.10;;;4.08;97.51
58967;BME280;44744;51.894;5.080;2024-02-23T03:31:57;99023.98;;;4.08;97.82
58967;BME280;44744;51.894;5.080;2024-02-23T03:36:58;99026.75;;;4.08;97.83
58967;BME280;44744;51.894;5.080;2024-02-23T03:42:00;99028.07;;;4.07;97.88
58967;BME280;44744;51.894;5.080;2024-02-23T03:47:00;99032.34;;;4.05;97.89
58967;BME280;44744;51.894;5.080;2024-02-23T03:52:01;99035.61;;;4.03;98.06
58967;BME280;44744;51.894;5.080;2024-02-23T03:57:01;99037.76;;;4.02;98.06
58967;BME280;44744;51.894;5.080;2024-02-23T04:02:03;99036.66;;;4.00;98.06
58967;BME280;44744;51.894;5.080;2024-02-23T04:07:04;99038.68;;;3.99;98.21
58967;BME280;44744;51.894;5.080;2024-02-23T04:12:04;99039.14;;;3.96;98.17
58967;BME280;44744;51.894;5.080;2024-02-23T04:17:07;99047.40;;;3.96;98.44
58967;BME280;44744;51.894;5.080;2024-02-23T04:22:08;99043.82;;;3.94;98.35
58967;BME280;44744;51.894;5.080;2024-02-23T04:27:10;99052.75;;;3.94;98.50
58967;BME280;44744;51.894;5.080;2024-02-23T04:32:10;99049.63;;;3.93;98.61
58967;BME280;44744;51.894;5.080;2024-02-23T04:37:10;99049.06;;;3.94;98.66
58967;BME280;44744;51.894;5.080;2024-02-23T04:42:11;99045.13;;;3.96;98.63
58967;BME280;44744;51.894;5.080;2024-02-23T04:47:11;99050.88;;;3.96;98.77
58967;BME280;44744;51.894;5.080;2024-02-23T04:52:12;99049.02;;;3.98;98.86
58967;BME280;44744;51.894;5.080;2024-02-23T04:57:12;99047.39;;;3.99;98.97
58967;BME280;44744;51.894;5.080;2024-02-23T05:02:13;99046.30;;;4.00;98.66
58967;BME280;44744;51.894;5.080;2024-02-23T05:07:14;99048.50;;;3.98;98.79
58967;BME280;44744;51.894;5.080;2024-02-23T05:12:18;99047.45;;;3.98;98.76
58967;BME280;44744;51.894;5.080;2024-02-23T05:17:18;99048.34;;;3.98;98.52
58967;BME280;44744;51.894;5.080;2024-02-23T05:22:19;99048.72;;;3.97;98.49
58967;BME280;44744;51.894;5.080;2024-02-23T05:27:19;99050.02;;;3.99;98.55
58967;BME280;44744;51.894;5.080;2024-02-23T05:32:20;99047.31;;;4.01;98.31
58967;BME280;44744;51.894;5.080;2024-02-23T05:37:28;99047.30;;;4.04;98.35
58967;BME280;44744;51.894;5.080;2024-02-23T05:42:29;99047.15;;;4.07;98.39
58967;BME280;44744;51.894;5.080;2024-02-23T05:47:30;99050.27;;;4.10;98.46
58967;BME280;44744;51.894;5.080;2024-02-23T05:52:31;99047.91;;;4.12;98.28
58967;BME280;44744;51.894;5.080;2024-02-23T05:57:32;99041.77;;;4.12;98.22
58967;BME280;44744;51.894;5.080;2024-02-23T06:02:33;99050.36;;;4.12;98.17
58967;BME280;44744;51.894;5.080;2024-02-23T06:07:34;99058.55;;;4.13;98.08
58967;BME280;44744;51.894;5.080;2024-02-23T06:12:35;99064.81;;;4.13;97.98
58967;BME280;44744;51.894;5.080;2024-02-23T06:17:35;99068.00;;;4.16;98.11
58967;BME280;44744;51.894;5.080;2024-02-23T06:22:35;99072.23;;;4.18;97.93
58967;BME280;44744;51.894;5.080;2024-02-23T06:27:36;99068.31;;;4.22;97.69
58967;BME280;44744;51.894;5.080;2024-02-23T06:32:36;99070.44;;;4.24;97.30
58967;BME280;44744;51.894;5.080;2024-02-23T06:37:37;99063.11;;;4.27;97.04
58967;BME280;44744;51.894;5.080;2024-02-23T06:42:37;99067.29;;;4.31;97.12
58967;BME280;44744;51.894;5.080;2024-02-23T06:47:38;99078.99;;;4.34;96.47
58967;BME280;44744;51.894;5.080;2024-02-23T06:52:40;99069.20;;;4.37;95.83
58967;BME280;44744;51.894;5.080;2024-02-23T06:57:43;99059.11;;;4.39;95.41
58967;BME280;44744;51.894;5.080;2024-02-23T07:02:43;99055.85;;;4.41;94.75
58967;BME280;44744;51.894;5.080;2024-02-23T07:07:44;99058.02;;;4.43;94.55
58967;BME280;44744;51.894;5.080;2024-02-23T07:12:44;99054.92;;;4.45;93.98
58967;BME280;44744;51.894;5.080;2024-02-23T07:17:45;99056.48;;;4.48;93.87
58967;BME280;44744;51.894;5.080;2024-02-23T07:22:46;99061.40;;;4.51;93.67
58967;BME280;44744;51.894;5.080;2024-02-23T07:27:47;99063.11;;;4.55;93.80
58967;BME280;44744;51.894;5.080;2024-02-23T07:32:50;99063.73;;;4.59;93.79
58967;BME280;44744;51.894;5.080;2024-02-23T07:37:51;99068.11;;;4.62;93.05
58967;BME280;44744;51.894;5.080;2024-02-23T07:42:51;99061.89;;;4.64;92.54
58967;BME280;44744;51.894;5.080;2024-02-23T07:47:51;99053.92;;;4.65;92.50
58967;BME280;44744;51.894;5.080;2024-02-23T07:52:52;99049.60;;;4.68;92.35
58967;BME280;44744;51.894;5.080;2024-02-23T07:57:52;99037.79;;;4.69;92.51
58967;BME280;44744;51.894;5.080;2024-02-23T08:02:53;99032.99;;;4.70;92.90
58967;BME280;44744;51.894;5.080;2024-02-23T08:07:56;99024.06;;;4.70;92.83
58967;BME280;44744;51.894;5.080;2024-02-23T08:12:57;99015.96;;;4.70;92.93
58967;BME280;44744;51.894;5.080;2024-02-23T08:17:57;99016.20;;;4.73;92.95
58967;BME280;44744;51.894;5.080;2024-02-23T08:22:58;99014.60;;;4.76;92.32
58967;BME280;44744;51.894;5.080;2024-02-23T08:57:56;99016.91;;;4.90;93.10
58967;BME280;44744;51.894;5.080;2024-02-23T09:02:56;99014.29;;;4.96;93.34
58967;BME280;44744;51.894;5.080;2024-02-23T09:07:56;99014.65;;;5.01;93.27
58967;BME280;44744;51.894;5.080;2024-02-23T09:12:57;99008.48;;;5.08;93.62
58967;BME280;44744;51.894;5.080;2024-02-23T09:17:59;99021.05;;;5.14;93.62
58967;BME280;44744;51.894;5.080;2024-02-23T09:22:59;99035.16;;;5.19;93.20
58967;BME280;44744;51.894;5.080;2024-02-23T09:28:02;99047.74;;;5.19;93.21
58967;BME280;44744;51.894;5.080;2024-02-23T09:33:03;99054.10;;;5.15;93.29
58967;BME280;44744;51.894;5.080;2024-02-23T09:38:03;99052.13;;;5.10;93.93
58967;BME280;44744;51.894;5.080;2024-02-23T09:43:07;99054.66;;;5.06;94.22
58967;BME280;44744;51.894;5.080;2024-02-23T09:48:07;99052.98;;;5.05;94.53
58967;BME280;44744;51.894;5.080;2024-02-23T09:53:11;99052.83;;;5.07;94.94
58967;BME280;44744;51.894;5.080;2024-02-23T09:58:14;99052.19;;;5.09;94.96
58967;BME280;44744;51.894;5.080;2024-02-23T10:03:17;99058.91;;;5.14;95.26
58967;BME280;44744;51.894;5.080;2024-02-23T10:08:17;99058.12;;;5.21;95.36
58967;BME280;44744;51.894;5.080;2024-02-23T10:13:23;99063.37;;;5.30;95.32
58967;BME280;44744;51.894;5.080;2024-02-23T10:18:26;99058.27;;;5.39;95.21
58967;BME280;44744;51.894;5.080;2024-02-23T10:23:27;99065.45;;;5.44;94.90
58967;BME280;44744;51.894;5.080;2024-02-23T10:28:27;99074.30;;;5.46;94.51
58967;BME280;44744;51.894;5.080;2024-02-23T10:33:28;99076.30;;;5.48;94.74
58967;BME280;44744;51.894;5.080;2024-02-23T10:38:32;99078.27;;;5.50;94.44
58967;BME280;44744;51.894;5.080;2024-02-23T10:43:44;99086.91;;;5.55;94.35
58967;BME280;44744;51.894;5.080;2024-02-23T10:48:54;99091.51;;;5.60;94.29
58967;BME280;44744;51.894;5.080;2024-02-23T10:53:55;99102.61;;;5.65;94.00
58967;BME280;44744;51.894;5.080;2024-02-23T10:58:57;99107.95;;;5.69;93.84
58967;BME280;44744;51.894;5.080;2024-02-23T11:03:59;99112.05;;;5.74;93.78
58967;BME280;44744;51.894;5.080;2024-02-23T11:09:07;99110.48;;;5.76;92.87
58967;BME280;44744;51.894;5.080;2024-02-23T11:14:08;99110.23;;;5.83;92.65
58967;BME280;44744;51.894;5.080;2024-02-23T11:19:11;99102.83;;;5.92;92.71
58967;BME280;44744;51.894;5.080;2024-02-23T11:24:18;99107.22;;;6.01;92.62
58967;BME280;44744;51.894;5.080;2024-02-23T11:29:18;99105.86;;;6.11;92.04
58967;BME280;44744;51.894;5.080;2024-02-23T11:34:26;99114.56;;;6.21;91.80
58967;BME280;44744;51.894;5.080;2024-02-23T11:39:30;99109.80;;;6.29;91.32
58967;BME280;44744;51.894;5.080;2024-02-23T11:44:31;99120.15;;;6.35;90.52
58967;BME280;44744;51.894;5.080;2024-02-23T11:49:32;99130.54;;;6.45;90.42
58967;BME280;44744;51.894;5.080;2024-02-23T11:54:51;99135.40;;;6.57;89.40
58967;BME280;44744;51.894;5.080;2024-02-23T12:00:05;99132.46;;;6.72;89.76
58967;BME280;44744;51.894;5.080;2024-02-23T12:05:29;99131.84;;;6.82;89.41
58967;BME280;44744;51.894;5.080;2024-02-23T12:10:33;99136.27;;;6.92;87.77
58967;BME280;44744;51.894;5.080;2024-02-23T12:15:38;99135.70;;;6.98;87.24
58967;BME280;44744;51.894;5.080;2024-02-23T12:20:42;99137.42;;;7.06;86.96
58967;BME280;44744;51.894;5.080;2024-02-23T12:25:56;99143.21;;;7.17;86.62
58967;BME280;44744;51.894;5.080;2024-02-23T12:31:03;99142.15;;;7.27;85.98
58967;BME280;44744;51.894;5.080;2024-02-23T12:36:08;99148.58;;;7.33;85.95
58967;BME280;44744;51.894;5.080;2024-02-23T12:41:19;99151.42;;;7.36;84.04
58967;BME280;44744;51.894;5.080;2024-02-23T12:46:22;99160.66;;;7.34;83.87
58967;BME280;44744;51.894;5.080;2024-02-23T12:51:36;99174.99;;;7.30;84.12
58967;BME280;44744;51.894;5.080;2024-02-23T12:56:41;99178.15;;;7.25;84.00
58967;BME280;44744;51.894;5.080;2024-02-23T13:01:44;99177.15;;;7.22;83.90
58967;BME280;44744;51.894;5.080;2024-02-23T13:06:44;99180.23;;;7.18;83.58
58967;BME280;44744;51.894;5.080;2024-02-23T13:11:45;99187.40;;;7.16;83.01
58967;BME280;44744;51.894;5.080;2024-02-23T13:16:47;99187.52;;;7.14;83.28
58967;BME280;44744;51.894;5.080;2024-02-23T13:21:47;99185.86;;;7.15;83.04
58967;BME280;44744;51.894;5.080;2024-02-23T13:26:47;99177.86;;;7.19;83.70
58967;BME280;44744;51.894;5.080;2024-02-23T13:31:48;99179.66;;;7.21;81.78
58967;BME280;44744;51.894;5.080;2024-02-23T13:36:49;99180.95;;;7.21;81.79
58967;BME280;44744;51.894;5.080;2024-02-23T13:41:50;99181.83;;;7.20;81.30
58967;BME280;44744;51.894;5.080;2024-02-23T13:46:50;99187.41;;;7.21;80.28
58967;BME280;44744;51.894;5.080;2024-02-23T13:51:51;99181.68;;;7.28;80.43
58967;BME280;44744;51.894;5.080;2024-02-23T13:56:51;99184.31;;;7.46;81.26
58967;BME280;44744;51.894;5.080;2024-02-23T14:01:52;99183.13;;;7.61;80.69
58967;BME280;44744;51.894;5.080;2024-02-23T14:06:53;99187.77;;;7.67;81.36
58967;BME280;44744;51.894;5.080;2024-02-23T14:11:53;99193.16;;;7.71;81.64
58967;BME280;44744;51.894;5.080;2024-02-23T14:16:54;99191.81;;;7.78;80.87
58967;BME280;44744;51.894;5.080;2024-02-23T14:21:54;99194.15;;;7.87;79.65
58967;BME280;44744;51.894;5.080;2024-02-23T14:26:55;99186.63;;;7.97;80.16
58967;BME280;44744;51.894;5.080;2024-02-23T14:31:55;99191.52;;;8.00;79.18
58967;BME280;44744;51.894;5.080;2024-02-23T14:36:56;99194.12;;;7.93;79.17
58967;BME280;44744;51.894;5.080;2024-02-23T14:42:10;99195.10;;;7.89;79.78
58967;BME280;44744;51.894;5.080;2024-02-23T14:47:10;99194.28;;;7.85;79.50
58967;BME280;44744;51.894;5.080;2024-02-23T14:52:15;99202.85;;;7.83;79.84
58967;BME280;44744;51.894;5.080;2024-02-23T14:57:16;99205.65;;;7.81;79.91
58967;BME280;44744;51.894;5.080;2024-02-23T15:02:21;99210.46;;;7.78;80.61
58967;BME280;44744;51.894;5.080;2024-02-23T15:07:22;99217.33;;;7.73;80.35
58967;BME280;44744;51.894;5.080;2024-02-23T15:12:22;99218.73;;;7.65;80.40
58967;BME280;44744;51.894;5.080;2024-02-23T15:17:24;99222.08;;;7.60;80.54
58967;BME280;44744;51.894;5.080;2024-02-23T15:22:25;99227.02;;;7.57;80.35
58967;BME280;44744;51.894;5.080;2024-02-23T15:27:26;99228.10;;;7.54;79.98
58967;BME280;44744;51.894;5.080;2024-02-23T15:32:26;99227.11;;;7.50;80.13
58967;BME280;44744;51.894;5.080;2024-02-23T15:37:27;99229.27;;;7.50;80.43
58967;BME280;44744;51.894;5.080;2024-02-23T15:42:27;99229.80;;;7.47;80.32
58967;BME280;44744;51.894;5.080;2024-02-23T15:47:28;99226.68;;;7.44;80.35
58967;BME280;44744;51.894;5.080;2024-02-23T15:52:28;99227.25;;;7.41;80.70
58967;BME280;44744;51.894;5.080;2024-02-23T15:57:29;99228.67;;;7.38;80.75
58967;BME280;44744;51.894;5.080;2024-02-23T16:02:29;99227.81;;;7.35;80.91
58967;BME280;44744;51.894;5.080;2024-02-23T16:07:30;99230.73;;;7.33;81.28
58967;BME280;44744;51.894;5.080;2024-02-23T16:12:30;99240.05;;;7.31;81.55
58967;BME280;44744;51.894;5.080;2024-02-23T16:17:31;99245.56;;;7.27;81.44
58967;BME280;44744;51.894;5.080;2024-02-23T16:22:31;99242.25;;;7.22;81.80
58967;BME280;44744;51.894;5.080;2024-02-23T16:27:32;99240.47;;;7.16;82.16
58967;BME280;44744;51.894;5.080;2024-02-23T16:32:32;99242.56;;;7.14;82.74
58967;BME280;44744;51.894;5.080;2024-02-23T16:37:32;99242.61;;;7.11;83.00
58967;BME280;44744;51.894;5.080;2024-02-23T16:42:33;99250.82;;;7.08;83.37
58967;BME280;44744;51.894;5.080;2024-02-23T16:47:33;99251.91;;;7.05;83.56
58967;BME280;44744;51.894;5.080;2024-02-23T16:52:34;99260.05;;;7.02;83.94
58967;BME280;44744;51.894;5.080;2024-02-23T16:57:34;99259.55;;;6.99;84.43
58967;BME280;44744;51.894;5.080;2024-02-23T17:02:35;99259.50;;;6.97;84.29
58967;BME280;44744;51.894;5.080;2024-02-23T17:07:41;99274.59;;;6.95;83.82
58967;BME280;44744;51.894;5.080;2024-02-23T17:12:46;99308.10;;;6.93;83.74
58967;BME280;44744;51.894;5.080;2024-02-23T17:17:49;99327.58;;;6.65;83.88
58967;BME280;44744;51.894;5.080;2024-02-23T17:22:50;99347.73;;;6.35;84.65
58967;BME280;44744;51.894;5.080;2024-02-23T17:27:50;99363.82;;;6.15;85.50
58967;BME280;44744;51.894;5.080;2024-02-23T17:32:52;99368.82;;;5.95;86.43
58967;BME280;44744;51.894;5.080;2024-02-23T17:37:53;99363.16;;;5.75;87.30
58967;BME280;44744;51.894;5.080;2024-02-23T17:42:53;99360.74;;;5.68;87.92
58967;BME280;44744;51.894;5.080;2024-02-23T17:47:54;99358.08;;;5.60;88.45
58967;BME280;44744;51.894;5.080;2024-02-23T17:52:54;99343.54;;;5.53;89.08
58967;BME280;44744;51.894;5.080;2024-02-23T17:58:06;99334.48;;;5.49;89.51
58967;BME280;44744;51.894;5.080;2024-02-23T18:03:25;99335.91;;;5.52;89.65
58967;BME280;44744;51.894;5.080;2024-02-23T18:08:25;99333.02;;;5.54;89.76
58967;BME280;44744;51.894;5.080;2024-02-23T18:13:26;99335.64;;;5.54;89.85
58967;BME280;44744;51.894;5.080;2024-02-23T18:18:26;99343.55;;;5.50;89.84
58967;BME280;44744;51.894;5.080;2024-02-23T18:23:27;99353.26;;;5.46;90.12
58967;BME280;44744;51.894;5.080;2024-02-23T18:28:27;99366.77;;;5.45;90.26
58967;BME280;44744;51.894;5.080;2024-02-23T18:33:32;99390.20;;;5.44;90.61
58967;BME280;44744;51.894;5.080;2024-02-23T18:38:32;99390.48;;;5.45;90.72
58967;BME280;44744;51.894;5.080;2024-02-23T18:43:34;99371.23;;;5.44;91.03
58967;BME280;44744;51.894;5.080;2024-02-23T18:48:40;99362.60;;;5.45;91.16
58967;BME280;44744;51.894;5.080;2024-02-23T18:53:41;99364.95;;;5.41;91.27
58967;BME280;44744;51.894;5.080;2024-02-23T18:58:43;99355.80;;;5.35;91.66
58967;BME280;44744;51.894;5.080;2024-02-23T19:03:44;99356.67;;;5.35;92.09
58967;BME280;44744;51.894;5.080;2024-02-23T19:08:45;99359.01;;;5.34;92.06
58967;BME280;44744;51.894;5.080;2024-02-23T19:13:46;99361.52;;;5.34;92.20
58967;BME280;44744;51.894;5.080;2024-02-23T19:18:49;99359.98;;;5.33;92.14
58967;BME280;44744;51.894;5.080;2024-02-23T19:23:50;99362.55;;;5.34;92.32
58967;BME280;44744;51.894;5.080;2024-02-23T19:28:50;99359.52;;;5.32;92.43
58967;BME280;44744;51.894;5.080;2024-02-23T19:33:51;99363.38;;;5.35;92.67
58967;BME280;44744;51.894;5.080;2024-02-23T19:38:53;99409.95;;;5.36;92.87
58967;BME280;44744;51.894;5.080;2024-02-23T19:43:53;99414.63;;;5.24;93.30
58967;BME280;44744;51.894;5.080;2024-02-23T19:49:00;99415.36;;;5.20;93.57
58967;BME280;44744;51.894;5.080;2024-02-23T19:54:01;99411.57;;;5.19;93.75
58967;BME280;44744;51.894;5.080;2024-02-23T19:59:01;99414.25;;;5.21;93.83
58967;BME280;44744;51.894;5.080;2024-02-23T20:04:02;99418.38;;;5.23;94.05
58967;BME280;44744;51.894;5.080;2024-02-23T20:09:03;99424.79;;;5.24;94.09
58967;BME280;44744;51.894;5.080;2024-02-23T20:14:03;99420.77;;;5.27;94.19
58967;BME280;44744;51.894;5.080;2024-02-23T20:19:04;99409.38;;;5.30;94.24
58967;BME280;44744;51.894;5.080;2024-02-23T20:24:05;99408.02;;;5.33;94.47
58967;BME280;44744;51.894;5.080;2024-02-23T20:29:05;99416.77;;;5.36;94.52
58967;BME280;44744;51.894;5.080;2024-02-23T20:34:07;99420.52;;;5.38;94.58
58967;BME280;44744;51.894;5.080;2024-02-23T20:39:18;99425.02;;;5.39;94.70
58967;BME280;44744;51.894;5.080;2024-02-23T20:44:18;99436.43;;;5.39;94.88
58967;BME280;44744;51.894;5.080;2024-02-23T20:49:21;99444.35;;;5.38;94.93
58967;BME280;44744;51.894;5.080;2024-02-23T20:54:21;99458.67;;;5.36;94.81
58967;BME280;44744;51.894;5.080;2024-02-23T20:59:22;99462.58;;;5.28;95.27
58967;BME280;44744;51.894;5.080;2024-02-23T21:04:24;99463.98;;;5.19;95.59
58967;BME280;44744;51.894;5.080;2024-02-23T21:09:25;99463.83;;;5.12;95.98
58967;BME280;44744;51.894;5.080;2024-02-23T21:14:25;99450.59;;;5.07;96.08
58967;BME280;44744;51.894;5.080;2024-02-23T21:19:26;99452.56;;;5.03;96.14
58967;BME280;44744;51.894;5.080;2024-02-23T21:24:27;99444.44;;;5.01;96.25
58967;BME280;44744;51.894;5.080;2024-02-23T21:29:34;99449.29;;;4.99;96.17
58967;BME280;44744;51.894;5.080;2024-02-23T21:34:35;99458.06;;;4.92;96.30
58967;BME280;44744;51.894;5.080;2024-02-23T21:39:36;99454.40;;;4.89;96.60
58967;BME280;44744;51.894;5.080;2024-02-23T21:44:36;99454.29;;;4.88;96.58
58967;BME280;44744;51.894;5.080;2024-02-23T21:49:37;99455.02;;;4.87;96.65
58967;BME280;44744;51.894;5.080;2024-02-23T21:54:37;99455.63;;;4.86;96.70
58967;BME280;44744;51.894;5.080;2024-02-23T21:59:42;99456.84;;;4.86;96.84
58967;BME280;44744;51.894;5.080;2024-02-23T22:04:55;99457.61;;;4.84;96.91
58967;BME280;44744;51.894;5.080;2024-02-23T22:10:01;99456.86;;;4.82;96.87
58967;BME280;44744;51.894;5.080;2024-02-23T22:15:02;99457.90;;;4.78;96.85
58967;BME280;44744;51.894;5.080;2024-02-23T22:20:06;99461.44;;;4.74;96.85
58967;BME280;44744;51.894;5.080;2024-02-23T22:25:10;99459.59;;;4.70;96.90
58967;BME280;44744;51.894;5.080;2024-02-23T22:30:11;99461.72;;;4.66;97.10
58967;BME280;44744;51.894;5.080;2024-02-23T22:35:14;99458.48;;;4.64;97.24
58967;BME280;44744;51.894;5.080;2024-02-23T22:40:33;99454.02;;;4.63;97.30
58967;BME280;44744;51.894;5.080;2024-02-23T22:45:39;99454.67;;;4.60;97.21
58967;BME280;44744;51.894;5.080;2024-02-23T22:50:47;99464.65;;;4.57;97.33
58967;BME280;44744;51.894;5.080;2024-02-23T22:55:48;99469.13;;;4.55;97.36
58967;BME280;44744;51.894;5.080;2024-02-23T23:00:56;99463.57;;;4.54;97.35
58967;BME280;44744;51.894;5.080;2024-02-23T23:05:57;99461.98;;;4.51;97.69
58967;BME280;44744;51.894;5.080;2024-02-23T23:10:57;99470.17;;;4.49;97.45
58967;BME280;44744;51.894;5.080;2024-02-23T23:16:00;99471.85;;;4.46;97.63
58967;BME280;44744;51.894;5.080;2024-02-23T23:21:00;99475.99;;;4.43;97.78
58967;BME280;44744;51.894;5.080;2024-02-23T23:26:02;99476.39;;;4.39;97.60
58967;BME280;44744;51.894;5.080;2024-02-23T23:31:04;99485.86;;;4.36;97.72
58967;BME280;44744;51.894;5.080;2024-02-23T23:36:04;99483.89;;;4.33;97.70
58967;BME280;44744;51.894;5.080;2024-02-23T23:41:05;99483.74;;;4.29;97.79
58967;BME280;44744;51.894;5.080;2024-02-23T23:46:05;99489.44;;;4.27;97.86
58967;BME280;44744;51.894;5.080;2024-02-23T23:51:05;99490.70;;;4.26;97.96
58967;BME280;44744;51.894;5.080;2024-02-23T23:56:08;99494.95;;;4.25;97.77
